Time;durP1;ratioP1;P1;durP2;ratioP2;P2;SDS_P1;SDS_P2;PMS_P1;PMS_P2;Temp;Humidity;BMP_temperature;BMP_pressure;BME280_temperature;BME280_humidity;BME280_pressure;Samples;Min_cycle;Max_cycle;Signal;HPM_P1;HPM_P2
2022/05/25 00:05:11;;;;;;;;;;;;;;;;;;21083144;28;20376;-57
2022/05/25 00:15:13;;;;;;;;;;;;;;;;;;21081845;28;19931;-59
2022/05/25 00:25:15;;;;;;;;;;;;;;;;;;21080765;28;20026;-59
2022/05/25 00:35:17;;;;;;;;;;;;;;;;;;21080486;28;20272;-59
2022/05/25 00:45:20;;;;;;;;;;;;;;;;;;21080084;28;20134;-59
2022/05/25 00:55:26;;;;;;;;;;;;;;;;;;21079328;28;19984;-60
2022/05/25 01:05:28;;;;;;;;;;;;;;;;;;21078901;28;19924;-58
2022/05/25 01:15:30;;;;;;;;;;;;;;;;;;21078970;28;19963;-58
2022/05/25 01:25:32;;;;;;;;;;;;;;;;;;21077902;28;20035;-57
2022/05/25 01:35:36;;;;;;;;;;;;;;;;;;21087172;28;19924;-59
2022/05/25 01:45:38;;;;;;;;;;;;;;;;;;21093109;28;19924;-57
2022/05/25 01:55:39;;;;;;;;;;;;;;;;;;21092358;28;19979;-57
2022/05/25 02:05:41;;;;;;;;;;;;;;;;;;21092254;28;19974;-57
2022/05/25 02:15:45;;;;;;;;;;;;;;;;;;21091425;28;20245;-58
2022/05/25 02:25:49;;;;;;;;;;;;;;;;;;21090196;28;19924;-56
2022/05/25 02:35:52;;;;;;;;;;;;;;;;;;21090070;28;19932;-57
2022/05/25 02:46:13;;;;;;;;;;;;;;;;;;21088206;28;19924;-58
2022/05/25 02:56:14;;;;;;;;;;;;;;;;;;21088463;28;19974;-57
2022/05/25 03:06:24;;;;;;;;;;;;;;;;;;21087344;28;19989;-56
2022/05/25 03:16:30;;;;;;;;;;;;;;;;;;21086661;28;20307;-58
2022/05/25 03:26:36;;;;;;;;;;;;;;;;;;21085817;28;19928;-57
2022/05/25 03:36:38;;;;;;;;;;;;;;;;;;21084574;28;19978;-59
2022/05/25 03:46:42;;;;;;;;;;;;;;;;;;21084615;28;19924;-59
2022/05/25 03:56:44;;;;;;;;;;;;;;;;;;21082002;28;19928;-59
2022/05/25 04:06:46;;;;;;;;;;;;;;;;;;21082233;28;19925;-58
2022/05/25 04:16:49;;;;;;;;;;;;;;;;;;21081777;28;19931;-58
2022/05/25 04:26:51;;;;;;;;;;;;;;;;;;21080516;28;19924;-58
2022/05/25 04:36:54;;;;;;;;;;;;;;;;;;21080379;28;20345;-60
2022/05/25 04:46:56;;;;;;;;;;;;;;;;;;21079310;28;19924;-60
2022/05/25 04:57:20;;;;;;;;;;;;;;;;;;21079222;28;20326;-59
2022/05/25 05:07:22;;;;;;;;;;;;;;;;;;21079473;28;19931;-59
2022/05/25 05:17:24;;;;;;;;;;;;;;;;;;21077816;28;19928;-58
2022/05/25 05:27:26;;;;;;;;;;;;;;;;;;21078737;28;20418;-58
2022/05/25 05:37:28;;;;;;;;;;;;;;;;;;21077778;28;19957;-58
2022/05/25 05:47:30;;;;;;;;;;;;;;;;;;21077311;28;19968;-58
2022/05/25 05:57:34;;;;;;;;;;;;;;;;;;21076439;28;19925;-58
2022/05/25 06:07:35;;;;;;;;;;;;;;;;;;21075850;28;19979;-59
2022/05/25 06:27:58;;;;;;;;;;;14.50;49.80;;;;;;21089267;28;20011;-59
2022/05/25 06:38:01;;;;;;;;;;;14.20;51.20;;;;;;21089223;28;19928;-60
2022/05/25 06:48:03;;;;;;;;;;;14.30;49.90;;;;;;21088039;28;19924;-59
2022/05/25 06:58:04;;;;;;;;;;;15.00;48.20;;;;;;21087965;28;20380;-57
2022/05/25 07:08:06;;;;;;;;;;;16.60;43.70;;;;;;21087435;28;20303;-61
2022/05/25 07:18:07;;;;;;;;;;;17.40;41.30;;;;;;21085374;28;19924;-59
2022/05/25 07:28:09;;;;;;;;;;;17.50;40.30;;;;;;21084466;28;20395;-58
2022/05/25 07:38:11;;;;;;;;;;;18.40;39.00;;;;;;21084335;28;19927;-59
2022/05/25 07:48:13;;;;;;;;;;;18.40;38.50;;;;;;21083585;28;19924;-60
2022/05/25 07:58:15;;;;;;;;;;;;;;;;;;21082072;28;19924;-59
2022/05/25 08:08:17;;;;;;;;;;;;;;;;;;21084666;28;19924;-60
2022/05/25 08:18:19;;;;;;;;;;;;;;;;;;21082825;28;19924;-59
2022/05/25 08:28:22;;;;;;;;;;;;;;;;;;21080828;28;19931;-59
2022/05/25 08:38:27;;;;;;;;;;;;;;;;;;21081628;28;19924;-59
2022/05/25 08:48:29;;;;;;;;;;;;;;;;;;21077252;28;20087;-57
2022/05/25 08:58:33;;;;;;;;;;;;;;;;;;21078643;28;19969;-59
2022/05/25 09:08:58;;;;;;;;;;;20.40;33.40;;;;;;21079206;28;19930;-60
2022/05/25 09:19:03;;;;;;;;;;;21.20;33.50;;;;;;21069828;28;19977;-60
2022/05/25 09:29:05;;;;;;;;;;;;;;;;;;21077864;28;20005;-65
2022/05/25 09:39:08;;;;;;;;;;;;;;;;;;21095617;28;19924;-63
2022/05/25 09:49:11;;;;;;;;;;;;;;;;;;21077692;28;19931;-67
2022/05/25 09:59:13;;;;;;;;;;;;;;;;;;21085355;28;19985;-63
2022/05/25 10:09:15;;;;;;;;;;;;;;;;;;21093713;28;20291;-60
2022/05/25 10:19:18;;;;;;;;;;;;;;;;;;21090860;28;19924;-58
2022/05/25 10:36:45;;;;;;;;;;;;;;;;;;21089916;28;19971;-58
2022/05/25 10:39:43;;;;;;;;;;;;;;;;;;21089836;28;20299;-61
2022/05/25 10:49:47;;;;;;;;;;;;;;;;;;21088946;28;19924;-61
2022/05/25 10:59:51;;;;;;;;;;;;;;;;;;21087874;28;19924;-61
2022/05/25 11:09:53;;;;;;;;;;;;;;;;;;21061724;28;19931;-61
2022/05/25 11:19:55;;;;;;;;;;;;;;;;;;21053649;28;19931;-61
2022/05/25 11:29:57;;;;;;;;;;;;;;;;;;21058151;28;19958;-62
2022/05/25 11:39:59;;;;;;;;;;;;;;;;;;21059292;28;20372;-64
2022/05/25 11:50:08;;;;;;;;;;;21.90;32.90;;;;;;21059440;28;19987;-66
2022/05/25 12:00:10;;;;;;;;;;;;;;;;;;21051092;28;19924;-63
2022/05/25 12:10:12;;;;;;;;;;;;;;;;;;21039400;28;19924;-79
2022/05/25 12:20:14;;;;;;;;;;;;;;;;;;21037765;28;19958;-61
2022/05/25 12:30:17;;;;;;;;;;;;;;;;;;21002688;28;20236;-64
2022/05/25 12:40:19;;;;;;;;;;;;;;;;;;20995509;28;19924;-67
2022/05/25 12:50:21;;;;;;;;;;;;;;;;;;20996491;28;19969;-65
2022/05/25 13:00:23;;;;;;;;;;;;;;;;;;20997221;28;20007;-67
2022/05/25 13:10:25;;;;;;;;;;;;;;;;;;20996865;28;20011;-65
2022/05/25 13:20:28;;;;;;;;;;;;;;;;;;21006010;28;19925;-66
2022/05/25 13:30:31;;;;;;;;;;;;;;;;;;21016156;28;19931;-65
2022/05/25 13:40:33;;;;;;;;;;;;;;;;;;21016500;28;19931;-64
2022/05/25 13:50:37;;;;;;;;;;;;;;;;;;21009971;28;19967;-65
2022/05/25 14:00:43;;;;;;;;;;;23.00;30.10;;;;;;21008580;28;19925;-65
2022/05/25 14:11:12;;;;;;;;;;;21.70;31.20;;;;;;21008599;28;19924;-63
2022/05/25 14:21:25;;;;;;;;;;;21.80;31.40;;;;;;21004032;28;20025;-68
2022/05/25 14:31:27;;;;;;;;;;;22.00;31.20;;;;;;21084275;28;19977;-64
2022/05/25 14:41:41;;;;;;;;;;;21.90;31.40;;;;;;21089428;28;20260;-66
2022/05/25 14:51:43;;;;;;;;;;;22.20;31.30;;;;;;21088744;28;19924;-65
2022/05/25 15:01:45;;;;;;;;;;;;;;;;;;21069611;28;19934;-62
2022/05/25 15:11:47;;;;;;;;;;;;;;;;;;21087031;28;19978;-65
2022/05/25 15:21:50;;;;;;;;;;;;;;;;;;21087035;28;19924;-65
2022/05/25 15:31:52;;;;;;;;;;;;;;;;;;21085770;28;19960;-67
2022/05/25 15:41:54;;;;;;;;;;;;;;;;;;21062712;28;19938;-61
2022/05/25 15:51:59;;;;;;;;;;;;;;;;;;21082675;28;20380;-61
2022/05/25 16:02:00;;;;;;;;;;;;;;;;;;21082649;28;19924;-66
2022/05/25 16:12:03;;;;;;;;;;;;;;;;;;21109763;28;19924;-63
2022/05/25 16:22:15;;;;;;;;;;;;;;;;;;21237581;27;20339;-63
2022/05/25 16:32:20;;;;;;;;;;;;;;;;;;21236824;27;19923;-61
2022/05/25 16:42:22;;;;;;;;;;;;;;;;;;21232862;27;19976;-63
2022/05/25 16:52:24;;;;;;;;;;;;;;;;;;21230542;27;19924;-60
2022/05/25 17:02:26;;;;;;;;;;;;;;;;;;21228132;27;19923;-72
2022/05/25 17:12:29;;;;;;;;;;;;;;;;;;21230516;28;19927;-60
2022/05/25 17:22:32;;;;;;;;;;;;;;;;;;21231398;28;19924;-59
2022/05/25 17:32:34;;;;;;;;;;;;;;;;;;21181558;27;19924;-57
2022/05/25 17:42:36;;;;;;;;;;;;;;;;;;21173870;27;20022;-58
2022/05/25 17:52:39;;;;;;;;;;;;;;;;;;21174368;28;19928;-63
2022/05/25 18:02:41;;;;;;;;;;;;;;;;;;21172864;28;19930;-56
2022/05/25 18:12:43;;;;;;;;;;;;;;;;;;21174601;28;19928;-60
2022/05/25 18:22:45;;;;;;;;;;;;;;;;;;21170494;28;19924;-58
2022/05/25 18:32:47;;;;;;;;;;;;;;;;;;21170732;28;19924;-58
2022/05/25 18:42:49;;;;;;;;;;;23.20;29.50;;;;;;21169226;28;19935;-58
2022/05/25 18:52:51;;;;;;;;;;;22.30;30.60;;;;;;21169873;28;19924;-58
2022/05/25 19:02:53;;;;;;;;;;;;;;;;;;21170510;28;19924;-62
2022/05/25 19:12:55;;;;;;;;;;;;;;;;;;21169770;28;20006;-60
2022/05/25 19:22:56;;;;;;;;;;;;;;;;;;21167210;28;19930;-60
2022/05/25 19:32:58;;;;;;;;;;;;;;;;;;21168297;28;20422;-62
2022/05/25 19:43:00;;;;;;;;;;;;;;;;;;21166913;28;19924;-63
2022/05/25 19:53:02;;;;;;;;;;;;;;;;;;21165138;28;19999;-63
2022/05/25 20:03:05;;;;;;;;;;;;;;;;;;21162403;28;19930;-66
2022/05/25 20:13:06;;;;;;;;;;;;;;;;;;21164208;28;19928;-66
2022/05/25 20:23:09;;;;;;;;;;;;;;;;;;21165166;28;20479;-67
2022/05/25 20:33:13;;;;;;;;;;;20.70;35.30;;;;;;21163663;28;19931;-63
2022/05/25 20:43:15;;;;;;;;;;;;;;;;;;21161920;28;19931;-67
2022/05/25 20:53:16;;;;;;;;;;;;;;;;;;21161198;28;19976;-69
2022/05/25 21:03:19;;;;;;;;;;;;;;;;;;21168190;28;20026;-61
2022/05/25 21:13:21;;;;;;;;;;;;;;;;;;21176223;28;20022;-68
2022/05/25 21:23:22;;;;;;;;;;;19.40;39.40;;;;;;21176207;28;19985;-65
2022/05/25 21:33:27;;;;;;;;;;;18.60;40.90;;;;;;21175384;28;19931;-64
2022/05/25 21:43:29;;;;;;;;;;;18.50;41.30;;;;;;21173862;28;19928;-67
2022/05/25 21:53:32;;;;;;;;;;;18.40;41.60;;;;;;21173121;28;19924;-66
2022/05/25 22:03:34;;;;;;;;;;;18.60;41.40;;;;;;21172515;28;19967;-69
2022/05/25 22:13:35;;;;;;;;;;;18.20;41.40;;;;;;21170867;28;19928;-64
2022/05/25 22:23:37;;;;;;;;;;;17.80;42.00;;;;;;21170292;28;19967;-60
2022/05/25 22:33:39;;;;;;;;;;;17.50;42.20;;;;;;21170552;28;20287;-57
2022/05/25 22:43:41;;;;;;;;;;;17.20;42.60;;;;;;21170260;28;20403;-60
2022/05/25 22:53:43;;;;;;;;;;;17.00;43.00;;;;;;21167702;28;19924;-63
2022/05/25 23:03:45;;;;;;;;;;;16.90;43.10;;;;;;21167014;28;19933;-65
2022/05/25 23:13:46;;;;;;;;;;;16.80;43.60;;;;;;21167522;28;19939;-64
2022/05/25 23:23:48;;;;;;;;;;;16.70;43.50;;;;;;21165439;28;20011;-62
2022/05/25 23:33:49;;;;;;;;;;;16.40;44.10;;;;;;21166355;28;19931;-62
2022/05/25 23:43:51;;;;;;;;;;;;;;;;;;21164609;28;19991;-62
2022/05/25 23:53:53;;;;;;;;;;;;;;;;;;21163607;28;20015;-64
